Archival Weather

Salzburg

Salzburg, Austria (LOWS)

Report from: Friday, May 26, 2023 8:20 PM CEST
Current time: Wednesday, May 29, 2024 10:24 AM CEST

Current weather – Weather history – Daily summaries
Weather forecast

Temperature21.0°C (69.8°F)
Dew point10.0°C (50.0°F)
Winds 3 kts (1.5 m/s, 3.5 mph) North-Northeast (20°)
Visibility6.2 mi. (10 km)
Clouds Few clouds 5,500 ft. (1,676 m)
Altimeter30.18 in.Hg (1022 mB)
Relative humidity49 %
Density altitude582 ft. (177 m)
Remarks No significant changes expected in the next two hours
Flight conditions Visual Meteorological Conditions
Raw dataLOWS 261820Z 02003KT 9999 FEW055 21/10 Q1022 NOSIG
An error has occurred. This application may no longer respond until reloaded. Reload 🗙